Time;durP1;ratioP1;P1;durP2;ratioP2;P2;SDS_P1;SDS_P2;PMS_P1;PMS_P2;Temp;Humidity;BMP_temperature;BMP_pressure;BME280_temperature;BME280_humidity;BME280_pressure;Samples;Min_cycle;Max_cycle;Signal;HPM_P1;HPM_P2
2023/12/02 00:01:16;;;;;;;0.9;0.9;;;;;;;;;;;;;
2023/12/02 00:03:41;;;;;;;0.8;0.8;;;;;;;;;;;;;
2023/12/02 00:06:10;;;;;;;1.3;1;;;;;;;;;;;;;
2023/12/02 00:08:38;;;;;;;1.1;0.9;;;;;;;;;;;;;
2023/12/02 00:11:03;;;;;;;0.8;0.8;;;;;;;;;;;;;
2023/12/02 00:13:33;;;;;;;0.7;0.7;;;;;;;;;;;;;
2023/12/02 00:16:00;;;;;;;0.9;0.9;;;;;;;;;;;;;
2023/12/02 00:18:27;;;;;;;0.8;0.8;;;;;;;;;;;;;
2023/12/02 00:20:59;;;;;;;0.8;0.8;;;;;;;;;;;;;
2023/12/02 00:23:23;;;;;;;0.8;0.8;;;;;;;;;;;;;
2023/12/02 00:25:51;;;;;;;0.9;0.9;;;;;;;;;;;;;
2023/12/02 00:28:16;;;;;;;1;0.9;;;;;;;;;;;;;
2023/12/02 00:30:41;;;;;;;0.8;0.8;;;;;;;;;;;;;
2023/12/02 00:33:13;;;;;;;0.9;0.9;;;;;;;;;;;;;
2023/12/02 00:35:42;;;;;;;0.8;0.8;;;;;;;;;;;;;
2023/12/02 00:38:10;;;;;;;0.9;0.7;;;;;;;;;;;;;
2023/12/02 00:40:35;;;;;;;1.1;1;;;;;;;;;;;;;
2023/12/02 00:43:06;;;;;;;0.8;0.8;;;;;;;;;;;;;
2023/12/02 00:45:33;;;;;;;1.1;1;;;;;;;;;;;;;
2023/12/02 00:48:06;;;;;;;1.1;1;;;;;;;;;;;;;
2023/12/02 00:50:35;;;;;;;0.9;0.9;;;;;;;;;;;;;
2023/12/02 00:53:06;;;;;;;0.7;0.7;;;;;;;;;;;;;
2023/12/02 00:55:38;;;;;;;1.1;1;;;;;;;;;;;;;
2023/12/02 00:58:05;;;;;;;1.1;1;;;;;;;;;;;;;
2023/12/02 01:00:30;;;;;;;1.2;0.9;;;;;;;;;;;;;
2023/12/02 01:02:59;;;;;;;0.8;0.8;;;;;;;;;;;;;
2023/12/02 01:05:29;;;;;;;0.9;0.9;;;;;;;;;;;;;
2023/12/02 01:07:54;;;;;;;1.1;1;;;;;;;;;;;;;
2023/12/02 01:10:22;;;;;;;1.2;1.1;;;;;;;;;;;;;
2023/12/02 01:12:45;;;;;;;0.9;0.9;;;;;;;;;;;;;
2023/12/02 01:15:17;;;;;;;2.4;1.2;;;;;;;;;;;;;
2023/12/02 01:17:47;;;;;;;1.1;1;;;;;;;;;;;;;
2023/12/02 01:20:15;;;;;;;1;1;;;;;;;;;;;;;
2023/12/02 01:22:40;;;;;;;1;1;;;;;;;;;;;;;
2023/12/02 01:25:07;;;;;;;1.2;1.1;;;;;;;;;;;;;
2023/12/02 01:27:32;;;;;;;1.1;1.1;;;;;;;;;;;;;
2023/12/02 01:29:57;;;;;;;1.1;1.1;;;;;;;;;;;;;
2023/12/02 01:32:22;;;;;;;1.1;1;;;;;;;;;;;;;
2023/12/02 01:34:50;;;;;;;1.3;1.2;;;;;;;;;;;;;
2023/12/02 01:37:15;;;;;;;1.2;1.2;;;;;;;;;;;;;
2023/12/02 01:39:40;;;;;;;1.2;1.2;;;;;;;;;;;;;
2023/12/02 01:42:05;;;;;;;1.3;1.2;;;;;;;;;;;;;
2023/12/02 01:44:34;;;;;;;1.4;1.3;;;;;;;;;;;;;
2023/12/02 01:47:02;;;;;;;1.2;1.1;;;;;;;;;;;;;
2023/12/02 01:49:26;;;;;;;1.3;1.2;;;;;;;;;;;;;
2023/12/02 01:51:55;;;;;;;1.2;1.2;;;;;;;;;;;;;
2023/12/02 01:54:20;;;;;;;1.3;1.2;;;;;;;;;;;;;
2023/12/02 01:56:48;;;;;;;1.3;1.2;;;;;;;;;;;;;
2023/12/02 01:59:13;;;;;;;1.3;1.2;;;;;;;;;;;;;
2023/12/02 02:01:40;;;;;;;1.5;1.3;;;;;;;;;;;;;
2023/12/02 02:04:05;;;;;;;1.5;1.4;;;;;;;;;;;;;
2023/12/02 02:06:32;;;;;;;1.4;1.3;;;;;;;;;;;;;
2023/12/02 02:08:57;;;;;;;1.4;1.3;;;;;;;;;;;;;
2023/12/02 02:11:23;;;;;;;1.4;1.3;;;;;;;;;;;;;
2023/12/02 02:13:48;;;;;;;1.6;1.3;;;;;;;;;;;;;
2023/12/02 02:16:15;;;;;;;1.5;1.4;;;;;;;;;;;;;
2023/12/02 02:18:40;;;;;;;1.4;1.3;;;;;;;;;;;;;
2023/12/02 02:21:07;;;;;;;1.6;1.5;;;;;;;;;;;;;
2023/12/02 02:23:32;;;;;;;1.4;1.3;;;;;;;;;;;;;
2023/12/02 02:26:00;;;;;;;1.6;1.5;;;;;;;;;;;;;
2023/12/02 02:28:25;;;;;;;1.5;1.4;;;;;;;;;;;;;
2023/12/02 02:30:53;;;;;;;1.7;1.6;;;;;;;;;;;;;
2023/12/02 02:33:18;;;;;;;1.8;1.6;;;;;;;;;;;;;
2023/12/02 02:35:47;;;;;;;1.6;1.5;;;;;;;;;;;;;
2023/12/02 02:38:16;;;;;;;1.5;1.4;;;;;;;;;;;;;
2023/12/02 02:40:41;;;;;;;1.6;1.5;;;;;;;;;;;;;
2023/12/02 02:43:08;;;;;;;2;1.5;;;;;;;;;;;;;
2023/12/02 02:45:33;;;;;;;1.8;1.7;;;;;;;;;;;;;
2023/12/02 02:47:59;;;;;;;1.7;1.6;;;;;;;;;;;;;
2023/12/02 02:50:24;;;;;;;1.6;1.5;;;;;;;;;;;;;
2023/12/02 02:52:51;;;;;;;1.7;1.6;;;;;;;;;;;;;
2023/12/02 02:55:16;;;;;;;2.1;1.8;;;;;;;;;;;;;
2023/12/02 02:57:44;;;;;;;1.6;1.5;;;;;;;;;;;;;
2023/12/02 03:00:10;;;;;;;1.8;1.7;;;;;;;;;;;;;
2023/12/02 03:02:34;;;;;;;1.6;1.5;;;;;;;;;;;;;
2023/12/02 03:04:59;;;;;;;1.8;1.7;;;;;;;;;;;;;
2023/12/02 03:07:25;;;;;;;1.9;1.7;;;;;;;;;;;;;
2023/12/02 03:09:53;;;;;;;2.1;1.9;;;;;;;;;;;;;
2023/12/02 03:12:18;;;;;;;2.4;2.2;;;;;;;;;;;;;
2023/12/02 03:14:45;;;;;;;2.4;1.9;;;;;;;;;;;;;
2023/12/02 03:17:10;;;;;;;2.4;2.2;;;;;;;;;;;;;
2023/12/02 03:19:37;;;;;;;2.3;2.1;;;;;;;;;;;;;
2023/12/02 03:22:02;;;;;;;2.4;2.2;;;;;;;;;;;;;
2023/12/02 03:24:27;;;;;;;2.5;2.3;;;;;;;;;;;;;
2023/12/02 03:26:52;;;;;;;2.5;2.3;;;;;;;;;;;;;
2023/12/02 03:29:18;;;;;;;2.9;2.4;;;;;;;;;;;;;
2023/12/02 03:31:43;;;;;;;2.9;2.5;;;;;;;;;;;;;
2023/12/02 03:34:08;;;;;;;2.3;2.1;;;;;;;;;;;;;
2023/12/02 03:36:33;;;;;;;2.8;2.5;;;;;;;;;;;;;
2023/12/02 03:39:01;;;;;;;2.5;2.3;;;;;;;;;;;;;
2023/12/02 03:41:26;;;;;;;2.8;2.4;;;;;;;;;;;;;
2023/12/02 03:43:53;;;;;;;2.6;2.4;;;;;;;;;;;;;
2023/12/02 03:46:18;;;;;;;2.7;2.4;;;;;;;;;;;;;
2023/12/02 03:48:44;;;;;;;2.9;2.6;;;;;;;;;;;;;
2023/12/02 03:51:09;;;;;;;3.5;2.5;;;;;;;;;;;;;
2023/12/02 03:53:35;;;;;;;2.9;2.5;;;;;;;;;;;;;
2023/12/02 03:55:59;;;;;;;2.9;2.6;;;;;;;;;;;;;
2023/12/02 03:58:27;;;;;;;2.9;2.6;;;;;;;;;;;;;
2023/12/02 04:02:37;;;;;;;3.2;2.4;;;;;;;;;;;;;
2023/12/02 04:05:02;;;;;;;2.8;2.5;;;;;;;;;;;;;
2023/12/02 04:07:32;;;;;;;3.5;2.7;;;;;;;;;;;;;
2023/12/02 04:10:00;;;;;;;3;2.5;;;;;;;;;;;;;
2023/12/02 04:12:25;;;;;;;2.8;2.6;;;;;;;;;;;;;
2023/12/02 04:14:52;;;;;;;2.9;2.6;;;;;;;;;;;;;
2023/12/02 04:17:17;;;;;;;2.8;2.6;;;;;;;;;;;;;
2023/12/02 04:19:42;;;;;;;2.7;2.5;;;;;;;;;;;;;
2023/12/02 04:22:07;;;;;;;3.5;2.9;;;;;;;;;;;;;
2023/12/02 04:24:33;;;;;;;2.7;2.5;;;;;;;;;;;;;
2023/12/02 04:26:58;;;;;;;2.8;2.5;;;;;;;;;;;;;
2023/12/02 04:29:24;;;;;;;3.1;2.7;;;;;;;;;;;;;
2023/12/02 04:31:49;;;;;;;3.3;2.9;;;;;;;;;;;;;
2023/12/02 04:34:17;;;;;;;2.8;2.6;;;;;;;;;;;;;
2023/12/02 04:36:43;;;;;;;2.6;2.4;;;;;;;;;;;;;
2023/12/02 04:39:11;;;;;;;3.4;2.8;;;;;;;;;;;;;
2023/12/02 04:41:35;;;;;;;3.1;2.7;;;;;;;;;;;;;
2023/12/02 04:44:02;;;;;;;3;2.6;;;;;;;;;;;;;
2023/12/02 04:46:27;;;;;;;3.8;2.9;;;;;;;;;;;;;
2023/12/02 04:48:53;;;;;;;3;2.7;;;;;;;;;;;;;
2023/12/02 04:51:18;;;;;;;3.8;2.7;;;;;;;;;;;;;
2023/12/02 04:53:43;;;;;;;3.3;2.6;;;;;;;;;;;;;
2023/12/02 04:56:08;;;;;;;2.8;2.6;;;;;;;;;;;;;
2023/12/02 04:58:34;;;;;;;3.7;2.7;;;;;;;;;;;;;
2023/12/02 05:00:59;;;;;;;3;2.7;;;;;;;;;;;;;
2023/12/02 05:03:28;;;;;;;4.1;3.1;;;;;;;;;;;;;
2023/12/02 05:05:53;;;;;;;3.2;2.9;;;;;;;;;;;;;
2023/12/02 05:08:18;;;;;;;2.9;2.5;;;;;;;;;;;;;
2023/12/02 05:10:44;;;;;;;3.3;2.7;;;;;;;;;;;;;
2023/12/02 05:13:10;;;;;;;3;2.7;;;;;;;;;;;;;
2023/12/02 05:15:36;;;;;;;3.2;2.8;;;;;;;;;;;;;
2023/12/02 05:18:01;;;;;;;3.3;2.8;;;;;;;;;;;;;
2023/12/02 05:20:26;;;;;;;3.5;3;;;;;;;;;;;;;
2023/12/02 05:22:52;;;;;;;4.1;3.4;;;;;;;;;;;;;
2023/12/02 05:25:17;;;;;;;3.7;3.3;;;;;;;;;;;;;
2023/12/02 05:27:43;;;;;;;3.4;3;;;;;;;;;;;;;
2023/12/02 05:30:09;;;;;;;4.2;3.4;;;;;;;;;;;;;
2023/12/02 05:32:34;;;;;;;4.1;3.5;;;;;;;;;;;;;
2023/12/02 05:34:59;;;;;;;4.8;3.7;;;;;;;;;;;;;
2023/12/02 05:37:27;;;;;;;3.4;3;;;;;;;;;;;;;
2023/12/02 05:39:51;;;;;;;5.1;3.4;;;;;;;;;;;;;
2023/12/02 05:42:16;;;;;;;4.3;3.6;;;;;;;;;;;;;
2023/12/02 05:44:42;;;;;;;4.2;3.4;;;;;;;;;;;;;
2023/12/02 05:47:10;;;;;;;4.4;3.5;;;;;;;;;;;;;
2023/12/02 05:49:35;;;;;;;5.5;3.7;;;;;;;;;;;;;
2023/12/02 05:52:02;;;;;;;5;3.5;;;;;;;;;;;;;
2023/12/02 05:54:27;;;;;;;5.2;4;;;;;;;;;;;;;
2023/12/02 05:56:55;;;;;;;5.6;3.9;;;;;;;;;;;;;
2023/12/02 05:59:19;;;;;;;4.3;3.5;;;;;;;;;;;;;
2023/12/02 06:01:47;;;;;;;4.4;3.5;;;;;;;;;;;;;
2023/12/02 06:04:12;;;;;;;5.2;4.2;;;;;;;;;;;;;
2023/12/02 06:06:38;;;;;;;4.7;3.8;;;;;;;;;;;;;
2023/12/02 06:09:03;;;;;;;4.9;3.8;;;;;;;;;;;;;
2023/12/02 06:11:30;;;;;;;4.9;4.2;;;;;;;;;;;;;
2023/12/02 06:13:54;;;;;;;5.1;4.3;;;;;;;;;;;;;
2023/12/02 06:16:22;;;;;;;4.3;3.7;;;;;;;;;;;;;
2023/12/02 06:18:47;;;;;;;5.4;4.1;;;;;;;;;;;;;
2023/12/02 06:21:15;;;;;;;5.8;4.1;;;;;;;;;;;;;
2023/12/02 06:23:43;;;;;;;6;4.4;;;;;;;;;;;;;
2023/12/02 06:26:08;;;;;;;6;4.5;;;;;;;;;;;;;
2023/12/02 06:28:35;;;;;;;6.3;4.7;;;;;;;;;;;;;
2023/12/02 06:31:00;;;;;;;8.7;6;;;;;;;;;;;;;
2023/12/02 06:33:30;;;;;;;5.7;4.5;;;;;;;;;;;;;
2023/12/02 06:35:55;;;;;;;6.1;5;;;;;;;;;;;;;
2023/12/02 06:38:22;;;;;;;6;5.4;;;;;;;;;;;;;
2023/12/02 06:40:47;;;;;;;6.2;4.9;;;;;;;;;;;;;
2023/12/02 06:43:15;;;;;;;6.5;5;;;;;;;;;;;;;
2023/12/02 06:45:40;;;;;;;6.3;5.3;;;;;;;;;;;;;
2023/12/02 06:48:08;;;;;;;8.4;6.4;;;;;;;;;;;;;
2023/12/02 06:50:33;;;;;;;7.7;6.1;;;;;;;;;;;;;
2023/12/02 06:53:01;;;;;;;6.7;5.2;;;;;;;;;;;;;
2023/12/02 06:55:31;;;;;;;5.6;4.1;;;;;;;;;;;;;
2023/12/02 06:57:56;;;;;;;5.7;4.3;;;;;;;;;;;;;
2023/12/02 07:00:22;;;;;;;5.6;4.4;;;;;;;;;;;;;
2023/12/02 07:02:48;;;;;;;5.8;4.5;;;;;;;;;;;;;
2023/12/02 07:05:16;;;;;;;5.3;4.2;;;;;;;;;;;;;
2023/12/02 07:07:47;;;;;;;8.3;4.8;;;;;;;;;;;;;
2023/12/02 07:10:18;;;;;;;6.6;4.7;;;;;;;;;;;;;
2023/12/02 07:12:49;;;;;;;6.8;4.9;;;;;;;;;;;;;
2023/12/02 07:15:18;;;;;;;7;4.8;;;;;;;;;;;;;
2023/12/02 07:17:43;;;;;;;6.7;4.7;;;;;;;;;;;;;
2023/12/02 07:20:08;;;;;;;5.6;4.8;;;;;;;;;;;;;
2023/12/02 07:22:36;;;;;;;6.6;5;;;;;;;;;;;;;
2023/12/02 07:25:00;;;;;;;7.8;5.2;;;;;;;;;;;;;
2023/12/02 07:27:27;;;;;;;6.2;4.6;;;;;;;;;;;;;
2023/12/02 07:29:52;;;;;;;7.3;5.2;;;;;;;;;;;;;
2023/12/02 07:32:19;;;;;;;6.3;4.8;;;;;;;;;;;;;
2023/12/02 07:34:45;;;;;;;6.9;4.8;;;;;;;;;;;;;
2023/12/02 07:37:11;;;;;;;7.2;5.1;;;;;;;;;;;;;
2023/12/02 07:39:36;;;;;;;5.8;4.7;;;;;;;;;;;;;
2023/12/02 07:42:02;;;;;;;5.8;4.8;;;;;;;;;;;;;
2023/12/02 07:44:27;;;;;;;6.3;4.7;;;;;;;;;;;;;
2023/12/02 07:46:52;;;;;;;8.7;6.3;;;;;;;;;;;;;
2023/12/02 07:49:17;;;;;;;7.2;4.9;;;;;;;;;;;;;
2023/12/02 07:51:44;;;;;;;7.5;4.8;;;;;;;;;;;;;
2023/12/02 07:54:09;;;;;;;6.9;4.9;;;;;;;;;;;;;
2023/12/02 07:56:39;;;;;;;7.2;5.4;;;;;;;;;;;;;
2023/12/02 07:59:02;;;;;;;7;5;;;;;;;;;;;;;
2023/12/02 08:01:26;;;;;;;8.7;7.1;;;;;;;;;;;;;
2023/12/02 08:03:52;;;;;;;8.3;5.8;;;;;;;;;;;;;
2023/12/02 08:06:18;;;;;;;8.6;6.5;;;;;;;;;;;;;
2023/12/02 08:08:43;;;;;;;6.7;5.1;;;;;;;;;;;;;
2023/12/02 08:11:11;;;;;;;7.5;5.3;;;;;;;;;;;;;
2023/12/02 08:13:36;;;;;;;8.9;6;;;;;;;;;;;;;
2023/12/02 08:16:04;;;;;;;7.7;5.5;;;;;;;;;;;;;
2023/12/02 08:18:32;;;;;;;6.9;5.1;;;;;;;;;;;;;
2023/12/02 08:20:58;;;;;;;6.6;5.2;;;;;;;;;;;;;
2023/12/02 08:23:25;;;;;;;7.3;5.1;;;;;;;;;;;;;
2023/12/02 08:25:50;;;;;;;7.7;5.5;;;;;;;;;;;;;
2023/12/02 08:28:17;;;;;;;7.8;5.6;;;;;;;;;;;;;
2023/12/02 08:30:42;;;;;;;6.8;5.2;;;;;;;;;;;;;
2023/12/02 08:33:08;;;;;;;7.7;5.5;;;;;;;;;;;;;
2023/12/02 08:35:33;;;;;;;9.1;6;;;;;;;;;;;;;
2023/12/02 08:38:00;;;;;;;7.4;5.5;;;;;;;;;;;;;
2023/12/02 08:40:25;;;;;;;8.1;5.3;;;;;;;;;;;;;
2023/12/02 08:42:53;;;;;;;10.2;6.3;;;;;;;;;;;;;
2023/12/02 08:45:17;;;;;;;8;5.6;;;;;;;;;;;;;
2023/12/02 08:47:43;;;;;;;7.1;5.2;;;;;;;;;;;;;
2023/12/02 08:50:08;;;;;;;8.1;5.7;;;;;;;;;;;;;
2023/12/02 08:52:35;;;;;;;8.1;5.3;;;;;;;;;;;;;
2023/12/02 08:55:00;;;;;;;6.9;5.3;;;;;;;;;;;;;
2023/12/02 08:57:26;;;;;;;7.4;5.3;;;;;;;;;;;;;
2023/12/02 08:59:51;;;;;;;8.2;5.7;;;;;;;;;;;;;
2023/12/02 09:02:17;;;;;;;9.2;6.2;;;;;;;;;;;;;
2023/12/02 09:04:43;;;;;;;8.6;6.5;;;;;;;;;;;;;
2023/12/02 09:07:10;;;;;;;8.2;5.6;;;;;;;;;;;;;
2023/12/02 09:09:35;;;;;;;9.7;6.8;;;;;;;;;;;;;
2023/12/02 09:12:00;;;;;;;10.8;6.9;;;;;;;;;;;;;
2023/12/02 09:14:25;;;;;;;9.7;6.8;;;;;;;;;;;;;
2023/12/02 09:16:52;;;;;;;12.7;8;;;;;;;;;;;;;
2023/12/02 09:19:17;;;;;;;12.1;7.9;;;;;;;;;;;;;
2023/12/02 09:21:44;;;;;;;11.8;7.7;;;;;;;;;;;;;
2023/12/02 09:24:08;;;;;;;9;6.4;;;;;;;;;;;;;
2023/12/02 09:26:33;;;;;;;10.2;6.9;;;;;;;;;;;;;
2023/12/02 09:28:58;;;;;;;10.3;7;;;;;;;;;;;;;
2023/12/02 09:31:23;;;;;;;11.9;7.5;;;;;;;;;;;;;
2023/12/02 09:33:51;;;;;;;12.4;8.2;;;;;;;;;;;;;
2023/12/02 09:36:16;;;;;;;13.9;8.9;;;;;;;;;;;;;
2023/12/02 09:38:41;;;;;;;11.5;8;;;;;;;;;;;;;
2023/12/02 09:41:09;;;;;;;13.3;8.4;;;;;;;;;;;;;
2023/12/02 09:43:32;;;;;;;12.2;7.8;;;;;;;;;;;;;
2023/12/02 09:45:57;;;;;;;12.3;8;;;;;;;;;;;;;
2023/12/02 09:48:22;;;;;;;16.1;10.6;;;;;;;;;;;;;
2023/12/02 09:50:50;;;;;;;14.9;8.9;;;;;;;;;;;;;
2023/12/02 09:53:15;;;;;;;14.5;7.9;;;;;;;;;;;;;
2023/12/02 09:55:41;;;;;;;12.8;8.8;;;;;;;;;;;;;
2023/12/02 09:58:06;;;;;;;11;7.5;;;;;;;;;;;;;
2023/12/02 10:00:31;;;;;;;13.1;8.6;;;;;;;;;;;;;
2023/12/02 10:03:02;;;;;;;11.3;7.6;;;;;;;;;;;;;
2023/12/02 10:05:31;;;;;;;13.2;8.3;;;;;;;;;;;;;
2023/12/02 10:07:56;;;;;;;13.1;8.9;;;;;;;;;;;;;
2023/12/02 10:10:21;;;;;;;12.8;8.2;;;;;;;;;;;;;
2023/12/02 10:12:47;;;;;;;12.6;8.4;;;;;;;;;;;;;
2023/12/02 10:15:16;;;;;;;11;7.5;;;;;;;;;;;;;
2023/12/02 10:17:41;;;;;;;11.5;7.3;;;;;;;;;;;;;
2023/12/02 10:20:11;;;;;;;10;7.2;;;;;;;;;;;;;
2023/12/02 10:22:34;;;;;;;11.2;7.5;;;;;;;;;;;;;
2023/12/02 10:25:01;;;;;;;11.1;7.5;;;;;;;;;;;;;
2023/12/02 10:27:26;;;;;;;13;7.8;;;;;;;;;;;;;
2023/12/02 10:29:53;;;;;;;12.1;7.8;;;;;;;;;;;;;
2023/12/02 10:32:20;;;;;;;11.3;7.5;;;;;;;;;;;;;
2023/12/02 10:34:46;;;;;;;11.5;7.9;;;;;;;;;;;;;
2023/12/02 10:37:11;;;;;;;12.1;7.7;;;;;;;;;;;;;
2023/12/02 10:39:36;;;;;;;12.5;8.2;;;;;;;;;;;;;
2023/12/02 10:42:04;;;;;;;12.3;7.6;;;;;;;;;;;;;
2023/12/02 10:44:29;;;;;;;11;7.3;;;;;;;;;;;;;
2023/12/02 10:46:55;;;;;;;11.6;8.1;;;;;;;;;;;;;
2023/12/02 10:49:21;;;;;;;13.2;8.6;;;;;;;;;;;;;
2023/12/02 10:51:48;;;;;;;12;7.8;;;;;;;;;;;;;
2023/12/02 10:54:13;;;;;;;9.6;7;;;;;;;;;;;;;
2023/12/02 10:56:39;;;;;;;12.6;8.2;;;;;;;;;;;;;
2023/12/02 10:59:04;;;;;;;11;7.2;;;;;;;;;;;;;
2023/12/02 11:01:32;;;;;;;11.4;7.5;;;;;;;;;;;;;
2023/12/02 11:03:57;;;;;;;13.8;9.2;;;;;;;;;;;;;
2023/12/02 11:06:22;;;;;;;12.5;7.5;;;;;;;;;;;;;
2023/12/02 11:08:47;;;;;;;27.6;15;;;;;;;;;;;;;
2023/12/02 11:11:13;;;;;;;11.5;7.7;;;;;;;;;;;;;
2023/12/02 11:13:40;;;;;;;12.1;8.1;;;;;;;;;;;;;
2023/12/02 11:16:05;;;;;;;11.7;7.6;;;;;;;;;;;;;
2023/12/02 11:18:30;;;;;;;9.5;6.5;;;;;;;;;;;;;
2023/12/02 11:20:56;;;;;;;11;7.4;;;;;;;;;;;;;
2023/12/02 11:23:21;;;;;;;12.7;8.1;;;;;;;;;;;;;
2023/12/02 11:25:47;;;;;;;12.7;7.8;;;;;;;;;;;;;
2023/12/02 11:28:13;;;;;;;12;7.7;;;;;;;;;;;;;
2023/12/02 11:30:38;;;;;;;10.1;6.8;;;;;;;;;;;;;
2023/12/02 11:33:03;;;;;;;10.9;7.3;;;;;;;;;;;;;
2023/12/02 11:35:32;;;;;;;10.4;6.9;;;;;;;;;;;;;
2023/12/02 11:37:57;;;;;;;11.2;7.6;;;;;;;;;;;;;
2023/12/02 11:40:21;;;;;;;11;7.9;;;;;;;;;;;;;
2023/12/02 11:42:46;;;;;;;10.2;7.1;;;;;;;;;;;;;
2023/12/02 11:45:13;;;;;;;9.3;6.9;;;;;;;;;;;;;
2023/12/02 11:47:38;;;;;;;10;6.9;;;;;;;;;;;;;
2023/12/02 11:50:06;;;;;;;9;6.4;;;;;;;;;;;;;
2023/12/02 11:52:34;;;;;;;11.3;6.8;;;;;;;;;;;;;
2023/12/02 11:54:59;;;;;;;10.4;6.8;;;;;;;;;;;;;
2023/12/02 11:57:24;;;;;;;9.1;6.4;;;;;;;;;;;;;
2023/12/02 11:59:49;;;;;;;9.8;7;;;;;;;;;;;;;
2023/12/02 12:02:16;;;;;;;10.1;6.7;;;;;;;;;;;;;
2023/12/02 12:04:41;;;;;;;11.1;7.4;;;;;;;;;;;;;
2023/12/02 12:07:06;;;;;;;11.5;7.4;;;;;;;;;;;;;
2023/12/02 12:09:31;;;;;;;11.5;7.2;;;;;;;;;;;;;
2023/12/02 12:11:56;;;;;;;12.4;7.3;;;;;;;;;;;;;
2023/12/02 12:14:23;;;;;;;13.9;7.8;;;;;;;;;;;;;
2023/12/02 12:16:48;;;;;;;10.3;7.3;;;;;;;;;;;;;
2023/12/02 12:19:13;;;;;;;12.7;7.7;;;;;;;;;;;;;
2023/12/02 12:21:40;;;;;;;11.1;7.5;;;;;;;;;;;;;
2023/12/02 12:24:05;;;;;;;11.2;7.3;;;;;;;;;;;;;
2023/12/02 12:26:32;;;;;;;10.9;7.7;;;;;;;;;;;;;
2023/12/02 12:28:57;;;;;;;11.1;7.8;;;;;;;;;;;;;
2023/12/02 12:31:24;;;;;;;10.6;7.5;;;;;;;;;;;;;
2023/12/02 12:33:49;;;;;;;12;7.8;;;;;;;;;;;;;
2023/12/02 12:36:16;;;;;;;11.4;7.8;;;;;;;;;;;;;
2023/12/02 12:38:41;;;;;;;12.1;7.4;;;;;;;;;;;;;
2023/12/02 12:41:07;;;;;;;11.8;7.8;;;;;;;;;;;;;
2023/12/02 12:43:35;;;;;;;11.4;7.9;;;;;;;;;;;;;
2023/12/02 12:46:00;;;;;;;12;7.8;;;;;;;;;;;;;
2023/12/02 12:48:28;;;;;;;13.3;8.3;;;;;;;;;;;;;
2023/12/02 12:50:54;;;;;;;12.1;8.4;;;;;;;;;;;;;
2023/12/02 12:53:21;;;;;;;13;8.4;;;;;;;;;;;;;
2023/12/02 12:55:46;;;;;;;12.7;8;;;;;;;;;;;;;
2023/12/02 12:58:11;;;;;;;14.6;8.3;;;;;;;;;;;;;
2023/12/02 13:00:37;;;;;;;13.7;8.6;;;;;;;;;;;;;
2023/12/02 13:03:02;;;;;;;12.9;8.5;;;;;;;;;;;;;
2023/12/02 13:05:27;;;;;;;12.3;8.8;;;;;;;;;;;;;
2023/12/02 13:07:55;;;;;;;13.3;8.3;;;;;;;;;;;;;
2023/12/02 13:10:20;;;;;;;13.4;8.1;;;;;;;;;;;;;
2023/12/02 13:12:49;;;;;;;12.7;8.1;;;;;;;;;;;;;
2023/12/02 13:15:14;;;;;;;12.7;8.1;;;;;;;;;;;;;
2023/12/02 13:17:42;;;;;;;11.5;8.1;;;;;;;;;;;;;
2023/12/02 13:20:07;;;;;;;12.4;7.5;;;;;;;;;;;;;
2023/12/02 13:22:35;;;;;;;12.5;8.3;;;;;;;;;;;;;
2023/12/02 13:25:01;;;;;;;12.4;8.5;;;;;;;;;;;;;
2023/12/02 13:27:27;;;;;;;11.7;7.9;;;;;;;;;;;;;
2023/12/02 13:29:52;;;;;;;10.9;7.6;;;;;;;;;;;;;
2023/12/02 13:32:18;;;;;;;12.6;8.2;;;;;;;;;;;;;
2023/12/02 13:34:44;;;;;;;11.3;7.7;;;;;;;;;;;;;
2023/12/02 13:37:09;;;;;;;13.3;8;;;;;;;;;;;;;
2023/12/02 13:39:34;;;;;;;11.9;8;;;;;;;;;;;;;
2023/12/02 13:41:59;;;;;;;12.9;7.3;;;;;;;;;;;;;
2023/12/02 13:44:26;;;;;;;12.6;8;;;;;;;;;;;;;
2023/12/02 13:46:51;;;;;;;12.9;8.6;;;;;;;;;;;;;
2023/12/02 13:49:30;;;;;;;13.5;8.4;;;;;;;;;;;;;
2023/12/02 13:51:41;;;;;;;13.9;8.5;;;;;;;;;;;;;
2023/12/02 13:54:09;;;;;;;12.7;8.3;;;;;;;;;;;;;
2023/12/02 13:56:33;;;;;;;15.1;8.9;;;;;;;;;;;;;
2023/12/02 13:58:58;;;;;;;13;8;;;;;;;;;;;;;
2023/12/02 14:01:24;;;;;;;13.5;8.3;;;;;;;;;;;;;
2023/12/02 14:03:49;;;;;;;13.2;9;;;;;;;;;;;;;
2023/12/02 14:06:14;;;;;;;13.4;8.8;;;;;;;;;;;;;
2023/12/02 14:08:40;;;;;;;12.4;8.3;;;;;;;;;;;;;
2023/12/02 14:11:05;;;;;;;14.4;8.5;;;;;;;;;;;;;
2023/12/02 14:13:32;;;;;;;14.4;8.7;;;;;;;;;;;;;
2023/12/02 14:15:57;;;;;;;14.6;8.9;;;;;;;;;;;;;
2023/12/02 14:18:23;;;;;;;15.5;9.7;;;;;;;;;;;;;
2023/12/02 14:20:48;;;;;;;15.9;9.4;;;;;;;;;;;;;
2023/12/02 14:23:19;;;;;;;16.2;9.4;;;;;;;;;;;;;
2023/12/02 14:25:44;;;;;;;19.3;11;;;;;;;;;;;;;
2023/12/02 14:28:12;;;;;;;16.1;9.5;;;;;;;;;;;;;
2023/12/02 14:30:37;;;;;;;15.5;9.3;;;;;;;;;;;;;
2023/12/02 14:33:04;;;;;;;14;9;;;;;;;;;;;;;
2023/12/02 14:35:28;;;;;;;15.2;9.3;;;;;;;;;;;;;
2023/12/02 14:37:53;;;;;;;13.9;9.2;;;;;;;;;;;;;
2023/12/02 14:40:20;;;;;;;14.8;8.9;;;;;;;;;;;;;
2023/12/02 14:42:45;;;;;;;14.6;9;;;;;;;;;;;;;
2023/12/02 14:45:10;;;;;;;13.9;8.9;;;;;;;;;;;;;
2023/12/02 14:47:38;;;;;;;14.2;8.7;;;;;;;;;;;;;
2023/12/02 14:50:03;;;;;;;14.3;9.1;;;;;;;;;;;;;
2023/12/02 14:52:30;;;;;;;16.7;9.4;;;;;;;;;;;;;
2023/12/02 14:54:55;;;;;;;16.6;9.7;;;;;;;;;;;;;
2023/12/02 14:57:25;;;;;;;17.8;9.9;;;;;;;;;;;;;
2023/12/02 14:59:47;;;;;;;17.7;10.7;;;;;;;;;;;;;
2023/12/02 15:02:13;;;;;;;19.6;11.7;;;;;;;;;;;;;
2023/12/02 15:04:40;;;;;;;17.7;10.2;;;;;;;;;;;;;
2023/12/02 15:07:05;;;;;;;19.2;11.6;;;;;;;;;;;;;
2023/12/02 15:09:30;;;;;;;28.4;14.9;;;;;;;;;;;;;
2023/12/02 15:11:56;;;;;;;26.1;14;;;;;;;;;;;;;
2023/12/02 15:14:23;;;;;;;23.4;12.8;;;;;;;;;;;;;
2023/12/02 15:16:50;;;;;;;16.5;10.3;;;;;;;;;;;;;
2023/12/02 15:19:16;;;;;;;16.1;10;;;;;;;;;;;;;
2023/12/02 15:21:41;;;;;;;18.9;11;;;;;;;;;;;;;
2023/12/02 15:24:07;;;;;;;16.3;9.9;;;;;;;;;;;;;
2023/12/02 15:26:34;;;;;;;18;10.9;;;;;;;;;;;;;
2023/12/02 15:28:59;;;;;;;15.2;10;;;;;;;;;;;;;
2023/12/02 15:31:28;;;;;;;16.9;11.1;;;;;;;;;;;;;
2023/12/02 15:33:58;;;;;;;15.6;10.3;;;;;;;;;;;;;
2023/12/02 15:36:22;;;;;;;15.7;9.2;;;;;;;;;;;;;
2023/12/02 15:38:47;;;;;;;16.1;9.9;;;;;;;;;;;;;
2023/12/02 15:41:12;;;;;;;16.4;10;;;;;;;;;;;;;
2023/12/02 15:43:42;;;;;;;15.2;9.7;;;;;;;;;;;;;
2023/12/02 15:46:10;;;;;;;16.2;9.9;;;;;;;;;;;;;
2023/12/02 15:48:35;;;;;;;15.5;9.7;;;;;;;;;;;;;
2023/12/02 15:51:04;;;;;;;15;9.1;;;;;;;;;;;;;
2023/12/02 15:53:29;;;;;;;17.2;9.3;;;;;;;;;;;;;
2023/12/02 15:55:56;;;;;;;16.1;9.4;;;;;;;;;;;;;
2023/12/02 15:58:22;;;;;;;15.9;9.6;;;;;;;;;;;;;
2023/12/02 16:00:49;;;;;;;16;9.7;;;;;;;;;;;;;
2023/12/02 16:03:14;;;;;;;18;9.9;;;;;;;;;;;;;
2023/12/02 16:05:40;;;;;;;18;10.4;;;;;;;;;;;;;
2023/12/02 16:08:06;;;;;;;15.1;9.6;;;;;;;;;;;;;
2023/12/02 16:10:33;;;;;;;15.7;10;;;;;;;;;;;;;
2023/12/02 16:12:59;;;;;;;16.6;9.4;;;;;;;;;;;;;
2023/12/02 16:15:25;;;;;;;13.9;9;;;;;;;;;;;;;
2023/12/02 16:17:50;;;;;;;15.9;9.3;;;;;;;;;;;;;
2023/12/02 16:20:16;;;;;;;14.7;9.7;;;;;;;;;;;;;
2023/12/02 16:22:41;;;;;;;21.1;12;;;;;;;;;;;;;
2023/12/02 16:25:08;;;;;;;18.3;11;;;;;;;;;;;;;
2023/12/02 16:27:33;;;;;;;20;11.6;;;;;;;;;;;;;
2023/12/02 16:30:00;;;;;;;17.9;10.2;;;;;;;;;;;;;
2023/12/02 16:32:26;;;;;;;15.9;9.9;;;;;;;;;;;;;
2023/12/02 16:34:53;;;;;;;17.1;10.6;;;;;;;;;;;;;
2023/12/02 16:37:18;;;;;;;24.8;13;;;;;;;;;;;;;
2023/12/02 16:39:43;;;;;;;21.2;11.8;;;;;;;;;;;;;
2023/12/02 16:42:08;;;;;;;15.1;10;;;;;;;;;;;;;
2023/12/02 16:44:36;;;;;;;17.5;10.9;;;;;;;;;;;;;
2023/12/02 16:47:02;;;;;;;17.2;10.9;;;;;;;;;;;;;
2023/12/02 16:49:26;;;;;;;26.6;14.7;;;;;;;;;;;;;
2023/12/02 16:51:52;;;;;;;21.6;12.5;;;;;;;;;;;;;
2023/12/02 16:54:19;;;;;;;20;12.6;;;;;;;;;;;;;
2023/12/02 16:56:44;;;;;;;17;11.8;;;;;;;;;;;;;
2023/12/02 16:59:11;;;;;;;19.8;11.6;;;;;;;;;;;;;
2023/12/02 17:01:37;;;;;;;17.4;11.3;;;;;;;;;;;;;
2023/12/02 17:04:02;;;;;;;15.9;9.5;;;;;;;;;;;;;
2023/12/02 17:06:27;;;;;;;16.5;11.2;;;;;;;;;;;;;
2023/12/02 17:08:53;;;;;;;17.7;11.6;;;;;;;;;;;;;
2023/12/02 17:11:20;;;;;;;13.9;9.1;;;;;;;;;;;;;
2023/12/02 17:13:45;;;;;;;17;9.6;;;;;;;;;;;;;
2023/12/02 17:16:12;;;;;;;14.8;9.9;;;;;;;;;;;;;
2023/12/02 17:18:37;;;;;;;15.7;10.3;;;;;;;;;;;;;
2023/12/02 17:21:02;;;;;;;14.8;9.8;;;;;;;;;;;;;
2023/12/02 17:23:29;;;;;;;16.4;10.1;;;;;;;;;;;;;
2023/12/02 17:25:54;;;;;;;14.3;9.3;;;;;;;;;;;;;
2023/12/02 17:28:19;;;;;;;13.9;8.7;;;;;;;;;;;;;
2023/12/02 17:30:44;;;;;;;16.4;10.1;;;;;;;;;;;;;
2023/12/02 17:33:10;;;;;;;13.5;9.3;;;;;;;;;;;;;
2023/12/02 17:35:36;;;;;;;14.1;9.5;;;;;;;;;;;;;
2023/12/02 17:38:03;;;;;;;12.9;8.4;;;;;;;;;;;;;
2023/12/02 17:40:28;;;;;;;14.5;9.1;;;;;;;;;;;;;
2023/12/02 17:42:54;;;;;;;13.9;8.4;;;;;;;;;;;;;
2023/12/02 17:45:21;;;;;;;16.7;9.5;;;;;;;;;;;;;
2023/12/02 17:47:46;;;;;;;14;8.9;;;;;;;;;;;;;
2023/12/02 17:50:17;;;;;;;13.3;8.9;;;;;;;;;;;;;
2023/12/02 17:52:47;;;;;;;14.6;9.3;;;;;;;;;;;;;
2023/12/02 17:55:17;;;;;;;14.9;9.4;;;;;;;;;;;;;
2023/12/02 17:57:43;;;;;;;13.4;8.4;;;;;;;;;;;;;
2023/12/02 18:00:15;;;;;;;14.9;8.7;;;;;;;;;;;;;
2023/12/02 18:02:43;;;;;;;14.1;9;;;;;;;;;;;;;
2023/12/02 18:05:08;;;;;;;17.3;10.1;;;;;;;;;;;;;
2023/12/02 18:07:36;;;;;;;18.3;10.2;;;;;;;;;;;;;
2023/12/02 18:10:01;;;;;;;12.5;8.1;;;;;;;;;;;;;
2023/12/02 18:12:32;;;;;;;13.5;8.5;;;;;;;;;;;;;
2023/12/02 18:15:00;;;;;;;11.9;7.9;;;;;;;;;;;;;
2023/12/02 18:17:25;;;;;;;13.6;8.5;;;;;;;;;;;;;
2023/12/02 18:19:53;;;;;;;14.9;8.2;;;;;;;;;;;;;
2023/12/02 18:22:18;;;;;;;12.3;8;;;;;;;;;;;;;
2023/12/02 18:24:46;;;;;;;11.7;7.7;;;;;;;;;;;;;
2023/12/02 18:27:11;;;;;;;12.9;7.7;;;;;;;;;;;;;
2023/12/02 18:29:39;;;;;;;11.6;7.5;;;;;;;;;;;;;
2023/12/02 18:32:04;;;;;;;12.5;7.9;;;;;;;;;;;;;
2023/12/02 18:34:31;;;;;;;13.4;8.1;;;;;;;;;;;;;
2023/12/02 18:36:57;;;;;;;10.6;7.5;;;;;;;;;;;;;
2023/12/02 18:39:24;;;;;;;10.7;6.9;;;;;;;;;;;;;
2023/12/02 18:41:49;;;;;;;11.6;7.5;;;;;;;;;;;;;
2023/12/02 18:44:14;;;;;;;12;7.9;;;;;;;;;;;;;
2023/12/02 18:46:39;;;;;;;10.8;7.2;;;;;;;;;;;;;
2023/12/02 18:49:09;;;;;;;12.1;7.7;;;;;;;;;;;;;
2023/12/02 18:51:33;;;;;;;10.7;7.7;;;;;;;;;;;;;
2023/12/02 18:54:00;;;;;;;14.6;8.8;;;;;;;;;;;;;
2023/12/02 18:56:25;;;;;;;13;8.2;;;;;;;;;;;;;
2023/12/02 18:58:50;;;;;;;14.4;9;;;;;;;;;;;;;
2023/12/02 19:01:15;;;;;;;13.5;8.9;;;;;;;;;;;;;
2023/12/02 19:03:41;;;;;;;14.8;8.6;;;;;;;;;;;;;
2023/12/02 19:06:06;;;;;;;13.3;8.3;;;;;;;;;;;;;
2023/12/02 19:08:33;;;;;;;12.6;8;;;;;;;;;;;;;
2023/12/02 19:10:58;;;;;;;12.3;7.7;;;;;;;;;;;;;
2023/12/02 19:13:23;;;;;;;11.5;7.1;;;;;;;;;;;;;
2023/12/02 19:15:49;;;;;;;12.2;7.8;;;;;;;;;;;;;
2023/12/02 19:18:16;;;;;;;11.9;7.5;;;;;;;;;;;;;
2023/12/02 19:20:41;;;;;;;11.9;7.9;;;;;;;;;;;;;
2023/12/02 19:23:06;;;;;;;10.4;7;;;;;;;;;;;;;
2023/12/02 19:25:31;;;;;;;12;7.8;;;;;;;;;;;;;
2023/12/02 19:27:58;;;;;;;12.1;8;;;;;;;;;;;;;
2023/12/02 19:30:23;;;;;;;11.6;7.8;;;;;;;;;;;;;
2023/12/02 19:32:52;;;;;;;11.7;7.3;;;;;;;;;;;;;
2023/12/02 19:35:20;;;;;;;12.3;7.4;;;;;;;;;;;;;
2023/12/02 19:37:47;;;;;;;11.8;7.8;;;;;;;;;;;;;
2023/12/02 19:40:10;;;;;;;10.9;7.3;;;;;;;;;;;;;
2023/12/02 19:42:41;;;;;;;11.9;6.9;;;;;;;;;;;;;
2023/12/02 19:45:03;;;;;;;12.5;7.1;;;;;;;;;;;;;
2023/12/02 19:47:32;;;;;;;12;7.2;;;;;;;;;;;;;
2023/12/02 19:49:59;;;;;;;11.6;7.5;;;;;;;;;;;;;
2023/12/02 19:52:24;;;;;;;11.8;7.6;;;;;;;;;;;;;
2023/12/02 19:54:50;;;;;;;12.7;7.4;;;;;;;;;;;;;
2023/12/02 19:57:15;;;;;;;12;7.2;;;;;;;;;;;;;
2023/12/02 19:59:42;;;;;;;11.2;7.3;;;;;;;;;;;;;
2023/12/02 20:02:07;;;;;;;10;6.5;;;;;;;;;;;;;
2023/12/02 20:04:33;;;;;;;11.3;7.1;;;;;;;;;;;;;
2023/12/02 20:06:58;;;;;;;11.7;7.3;;;;;;;;;;;;;
2023/12/02 20:09:25;;;;;;;9.3;6.9;;;;;;;;;;;;;
2023/12/02 20:11:50;;;;;;;10.8;7;;;;;;;;;;;;;
2023/12/02 20:14:16;;;;;;;10.8;7.1;;;;;;;;;;;;;
2023/12/02 20:16:42;;;;;;;11.9;7.4;;;;;;;;;;;;;
2023/12/02 20:19:08;;;;;;;12;7.3;;;;;;;;;;;;;
2023/12/02 20:21:33;;;;;;;12.6;8.1;;;;;;;;;;;;;
2023/12/02 20:24:02;;;;;;;12;7.9;;;;;;;;;;;;;
2023/12/02 20:26:25;;;;;;;13.4;7.5;;;;;;;;;;;;;
2023/12/02 20:28:50;;;;;;;12.9;8.1;;;;;;;;;;;;;